Time;durP1;ratioP1;P1;durP2;ratioP2;P2;SDS_P1;SDS_P2;PMS_P1;PMS_P2;Temp;Humidity;BMP_temperature;BMP_pressure;BME280_temperature;BME280_humidity;BME280_pressure;Samples;Min_cycle;Max_cycle;Signal;HPM_P1;HPM_P2
2023/10/26 00:01:11;;;;;;;1.40;0.73;;;15.10;99.90;;;;;;5117909;28;20067;-73
2023/10/26 00:03:37;;;;;;;0.60;0.50;;;15.10;99.90;;;;;;5099990;28;20024;-73
2023/10/26 00:06:02;;;;;;;0.40;0.40;;;15.10;99.90;;;;;;5118254;28;20035;-73
2023/10/26 00:08:28;;;;;;;1.05;0.50;;;15.10;99.90;;;;;;5118132;28;20024;-73
2023/10/26 00:10:54;;;;;;;0.60;0.30;;;15.00;99.90;;;;;;5117709;28;20028;-73
2023/10/26 00:13:19;;;;;;;1.30;0.50;;;15.00;99.90;;;;;;5118443;28;20046;-73
2023/10/26 00:15:45;;;;;;;0.70;0.47;;;15.10;99.90;;;;;;5117710;28;20031;-73
2023/10/26 00:18:11;;;;;;;0.50;0.30;;;15.10;99.90;;;;;;5118340;28;20535;-73
2023/10/26 00:20:37;;;;;;;0.50;0.30;;;15.10;99.90;;;;;;5117831;28;20016;-73
2023/10/26 00:23:05;;;;;;;1.65;0.25;;;15.10;99.90;;;;;;5117871;28;20030;-73
2023/10/26 00:25:30;;;;;;;1.27;0.40;;;15.10;99.90;;;;;;5099403;28;20031;-74
2023/10/26 00:27:56;;;;;;;1.02;0.30;;;15.10;99.90;;;;;;5117915;28;20028;-74
2023/10/26 00:30:22;;;;;;;1.65;0.45;;;15.00;99.90;;;;;;5117495;28;20403;-74
2023/10/26 00:32:48;;;;;;;3.35;0.60;;;14.90;99.90;;;;;;5117915;28;20053;-74
2023/10/26 00:35:14;;;;;;;2.63;0.35;;;14.80;99.90;;;;;;5099276;28;20503;-74
2023/10/26 00:37:40;;;;;;;2.65;0.40;;;14.70;99.90;;;;;;5117826;28;20539;-74
2023/10/26 00:40:06;;;;;;;2.30;0.35;;;14.70;99.90;;;;;;5117524;28;20047;-73
2023/10/26 00:42:31;;;;;;;2.08;0.50;;;14.70;99.90;;;;;;5117629;28;20027;-74
2023/10/26 00:44:57;;;;;;;1.17;0.40;;;14.60;99.90;;;;;;5117754;28;20137;-74
2023/10/26 00:47:25;;;;;;;2.15;0.60;;;14.60;99.90;;;;;;5117404;28;20028;-73
2023/10/26 00:49:50;;;;;;;2.00;0.57;;;14.50;99.90;;;;;;5101105;28;20027;-74
2023/10/26 00:52:16;;;;;;;2.78;0.60;;;14.50;99.90;;;;;;5127311;28;20024;-73
2023/10/26 00:54:42;;;;;;;3.40;0.60;;;14.50;99.90;;;;;;5117408;28;20588;-74
2023/10/26 00:57:09;;;;;;;3.30;0.70;;;14.40;99.90;;;;;;5117674;28;20024;-74
2023/10/26 00:59:36;;;;;;;4.55;0.90;;;14.40;99.90;;;;;;5115944;28;20016;-74
2023/10/26 01:02:02;;;;;;;3.75;0.60;;;14.40;99.90;;;;;;5097590;28;20048;-73
2023/10/26 01:04:28;;;;;;;4.82;1.02;;;14.30;99.90;;;;;;5120264;28;20079;-74
2023/10/26 01:06:54;;;;;;;3.53;0.50;;;14.30;99.90;;;;;;5102967;28;20019;-74
2023/10/26 01:09:21;;;;;;;5.22;0.90;;;14.20;99.90;;;;;;5121061;28;20038;-74
2023/10/26 01:11:47;;;;;;;4.13;0.60;;;14.20;99.90;;;;;;5121238;28;20028;-74
2023/10/26 01:14:14;;;;;;;2.75;0.57;;;14.10;99.90;;;;;;5121279;28;20031;-74
2023/10/26 01:16:39;;;;;;;3.63;0.43;;;14.10;99.90;;;;;;5121480;28;20016;-73
2023/10/26 01:19:06;;;;;;;4.20;0.88;;;14.10;99.90;;;;;;5102936;28;20392;-73
2023/10/26 01:21:46;;;;;;;3.05;0.93;;;14.00;99.90;;;;;;5103199;28;20038;-74
2023/10/26 01:24:12;;;;;;;4.35;0.70;;;14.00;99.90;;;;;;5121225;28;20025;-74
2023/10/26 01:26:40;;;;;;;3.63;0.63;;;14.00;99.90;;;;;;5102828;28;20380;-74
2023/10/26 01:29:05;;;;;;;6.25;0.82;;;14.00;99.90;;;;;;5121367;28;20026;-74
2023/10/26 01:31:31;;;;;;;3.05;0.80;;;13.90;99.90;;;;;;5121026;28;20023;-74
2023/10/26 01:33:57;;;;;;;3.88;0.90;;;13.90;99.90;;;;;;5121087;28;20030;-75
2023/10/26 01:36:22;;;;;;;4.03;0.70;;;13.90;99.90;;;;;;5118159;28;20023;-74
2023/10/26 01:38:48;;;;;;;3.13;0.80;;;13.90;99.90;;;;;;5120801;28;20020;-74
2023/10/26 01:41:14;;;;;;;3.72;0.90;;;13.80;99.90;;;;;;5114757;28;20024;-74
2023/10/26 01:43:39;;;;;;;5.05;1.13;;;13.80;99.90;;;;;;5120277;28;20051;-74
2023/10/26 01:46:05;;;;;;;4.25;0.80;;;13.80;99.90;;;;;;5120660;28;20031;-75
2023/10/26 01:48:30;;;;;;;4.20;0.80;;;13.80;99.90;;;;;;5114080;28;20146;-75
2023/10/26 01:50:56;;;;;;;6.93;1.13;;;13.70;99.90;;;;;;5111142;27;20066;-75
2023/10/26 01:53:23;;;;;;;5.60;0.82;;;13.70;99.90;;;;;;5105766;28;20550;-75
2023/10/26 01:55:49;;;;;;;4.75;1.00;;;13.70;99.90;;;;;;5120515;28;20028;-75
2023/10/26 01:58:15;;;;;;;4.25;1.17;;;13.70;99.90;;;;;;5120715;28;20483;-75
2023/10/26 02:00:41;;;;;;;4.28;0.77;;;13.70;99.90;;;;;;5120250;28;20051;-74
2023/10/26 02:03:07;;;;;;;4.05;0.88;;;13.60;99.90;;;;;;5119236;28;20023;-75
2023/10/26 02:05:33;;;;;;;2.88;0.73;;;13.60;99.90;;;;;;5120675;28;20115;-75
2023/10/26 02:07:59;;;;;;;4.00;0.93;;;13.50;99.90;;;;;;5119152;28;20480;-75
2023/10/26 02:10:29;;;;;;;5.32;1.20;;;13.50;99.90;;;;;;5112980;28;20085;-75
2023/10/26 02:12:57;;;;;;;6.63;1.30;;;13.50;99.90;;;;;;5120435;28;20027;-74
2023/10/26 02:15:23;;;;;;;6.90;1.20;;;13.40;99.90;;;;;;5119100;28;20027;-74
2023/10/26 02:17:49;;;;;;;5.05;1.00;;;13.40;99.90;;;;;;5107012;28;20027;-74
2023/10/26 02:20:14;;;;;;;4.70;1.17;;;13.40;99.90;;;;;;5120222;28;20551;-74
2023/10/26 02:22:40;;;;;;;3.25;0.80;;;13.30;99.90;;;;;;5120568;28;20024;-74
2023/10/26 02:25:06;;;;;;;6.93;1.48;;;13.30;99.90;;;;;;5120116;28;20476;-74
2023/10/26 02:27:32;;;;;;;6.88;1.30;;;13.30;99.90;;;;;;5120276;28;20030;-73
2023/10/26 02:29:58;;;;;;;8.43;1.40;;;13.30;99.90;;;;;;5120107;28;20076;-74
2023/10/26 02:32:24;;;;;;;3.38;0.95;;;13.20;99.90;;;;;;5119886;28;20027;-74
2023/10/26 02:34:49;;;;;;;3.45;0.70;;;13.20;99.90;;;;;;5119917;28;20031;-73
2023/10/26 02:37:17;;;;;;;6.65;1.27;;;13.20;99.90;;;;;;5120254;28;20865;-73
2023/10/26 02:39:43;;;;;;;4.22;0.95;;;13.10;99.90;;;;;;5101457;28;20020;-73
2023/10/26 02:42:09;;;;;;;5.65;1.10;;;13.10;99.90;;;;;;5119724;28;20027;-73
2023/10/26 02:44:35;;;;;;;7.85;1.33;;;13.10;99.90;;;;;;5119680;28;20024;-73
2023/10/26 02:47:00;;;;;;;6.93;1.38;;;13.10;99.90;;;;;;5118243;28;20019;-72
2023/10/26 02:49:26;;;;;;;7.38;1.50;;;13.10;99.90;;;;;;5119496;28;20476;-73
2023/10/26 02:51:52;;;;;;;9.10;1.42;;;13.00;99.90;;;;;;5110683;28;20019;-73
2023/10/26 02:54:17;;;;;;;6.03;1.15;;;13.00;99.90;;;;;;5119443;28;20115;-73
2023/10/26 02:56:43;;;;;;;10.80;1.48;;;13.00;99.90;;;;;;5119596;28;20020;-73
2023/10/26 02:59:09;;;;;;;5.65;1.00;;;12.90;99.90;;;;;;5119567;28;20051;-73
2023/10/26 03:01:35;;;;;;;5.95;1.38;;;12.90;99.90;;;;;;5097360;28;20040;-72
2023/10/26 03:04:01;;;;;;;7.88;1.17;;;12.90;99.90;;;;;;5098968;28;20035;-73
2023/10/26 03:06:27;;;;;;;3.95;0.85;;;12.90;99.90;;;;;;5099268;28;20119;-73
2023/10/26 03:08:53;;;;;;;6.20;1.20;;;12.90;99.90;;;;;;5098850;28;20059;-73
2023/10/26 03:11:18;;;;;;;5.40;1.08;;;12.80;99.90;;;;;;5097891;28;20476;-73
2023/10/26 03:13:44;;;;;;;6.75;1.20;;;12.80;99.90;;;;;;5097333;28;20061;-73
2023/10/26 03:16:09;;;;;;;6.93;1.15;;;12.80;99.90;;;;;;5098649;28;20016;-74
2023/10/26 03:18:36;;;;;;;8.07;1.08;;;12.80;99.90;;;;;;5097434;28;20080;-75
2023/10/26 03:21:03;;;;;;;6.30;1.23;;;12.70;99.90;;;;;;5097735;28;20055;-75
2023/10/26 03:23:29;;;;;;;8.27;1.15;;;12.70;99.90;;;;;;5098531;28;20035;-74
2023/10/26 03:25:54;;;;;;;4.03;1.17;;;12.70;99.90;;;;;;5096628;28;20393;-73
2023/10/26 03:28:20;;;;;;;4.97;0.98;;;12.70;99.90;;;;;;5096886;28;20492;-73
2023/10/26 03:30:45;;;;;;;6.20;1.30;;;12.60;99.90;;;;;;5097934;28;20070;-74
2023/10/26 03:33:11;;;;;;;4.93;0.90;;;12.60;99.90;;;;;;5097129;28;20058;-74
2023/10/26 03:35:37;;;;;;;7.05;1.27;;;12.60;99.90;;;;;;5097091;28;20135;-74
2023/10/26 03:38:02;;;;;;;5.00;0.90;;;12.60;99.90;;;;;;5097015;28;20031;-74
2023/10/26 03:40:28;;;;;;;6.00;1.15;;;12.60;99.90;;;;;;5098401;28;20043;-74
2023/10/26 03:42:53;;;;;;;4.25;1.00;;;12.60;99.90;;;;;;5091143;28;20028;-74
2023/10/26 03:45:19;;;;;;;5.00;1.00;;;12.60;99.90;;;;;;5096573;28;20020;-74
2023/10/26 03:47:45;;;;;;;7.65;1.10;;;12.60;99.90;;;;;;5098119;28;20494;-74
2023/10/26 03:50:10;;;;;;;6.15;1.05;;;12.50;99.90;;;;;;5096770;28;20020;-74
2023/10/26 03:52:36;;;;;;;8.40;1.17;;;12.50;99.90;;;;;;5096898;28;20056;-75
2023/10/26 03:55:03;;;;;;;5.40;1.00;;;12.50;99.90;;;;;;5097639;28;20032;-74
2023/10/26 03:57:29;;;;;;;4.38;0.90;;;12.60;99.90;;;;;;5096729;28;20016;-74
2023/10/26 03:59:54;;;;;;;6.57;1.25;;;12.60;99.90;;;;;;5097867;28;20103;-73
2023/10/26 04:02:20;;;;;;;6.32;1.10;;;12.60;99.90;;;;;;5118024;28;20024;-73
2023/10/26 04:04:49;;;;;;;6.82;1.10;;;12.50;99.90;;;;;;5116871;28;20054;-73
2023/10/26 04:07:15;;;;;;;5.88;0.95;;;12.50;99.90;;;;;;5118157;28;20102;-73
2023/10/26 04:09:41;;;;;;;8.88;1.38;;;12.50;99.90;;;;;;5118044;28;20057;-73
2023/10/26 04:12:07;;;;;;;7.75;1.40;;;12.60;99.90;;;;;;5117953;28;20020;-74
2023/10/26 04:14:33;;;;;;;4.57;0.93;;;12.60;99.90;;;;;;5116794;28;20032;-73
2023/10/26 04:16:59;;;;;;;5.40;1.00;;;12.60;99.90;;;;;;5117667;28;20023;-73
2023/10/26 04:19:24;;;;;;;5.65;1.10;;;12.60;99.90;;;;;;5117944;28;20031;-73
2023/10/26 04:21:50;;;;;;;5.30;1.65;;;12.60;99.90;;;;;;5117918;28;20026;-73
2023/10/26 04:24:15;;;;;;;8.38;1.27;;;12.50;99.90;;;;;;5116658;28;20051;-73
2023/10/26 04:26:42;;;;;;;9.35;1.25;;;12.60;99.90;;;;;;5117649;28;20486;-73
2023/10/26 04:29:07;;;;;;;5.05;1.10;;;12.60;99.90;;;;;;5117599;28;20027;-74
2023/10/26 04:31:33;;;;;;;7.25;1.20;;;12.60;99.90;;;;;;5117656;28;20542;-72
2023/10/26 04:33:59;;;;;;;7.78;1.30;;;12.60;99.90;;;;;;5117753;28;20024;-72
2023/10/26 04:36:26;;;;;;;4.22;1.13;;;12.60;99.90;;;;;;5117873;28;20420;-73
2023/10/26 04:38:51;;;;;;;4.13;1.10;;;12.60;99.90;;;;;;5117787;28;20020;-73
2023/10/26 04:41:17;;;;;;;5.68;1.20;;;12.50;99.90;;;;;;5117195;28;20016;-72
2023/10/26 04:43:43;;;;;;;5.95;1.23;;;12.50;99.90;;;;;;5117591;28;20027;-72
2023/10/26 04:46:08;;;;;;;8.60;1.20;;;12.50;99.90;;;;;;5117335;28;20020;-72
2023/10/26 04:48:34;;;;;;;4.15;1.02;;;12.60;99.90;;;;;;5110230;28;20084;-73
2023/10/26 04:51:00;;;;;;;7.32;1.20;;;12.60;99.90;;;;;;5126834;28;20044;-73
2023/10/26 04:53:26;;;;;;;5.15;1.08;;;12.60;99.90;;;;;;5118137;28;20019;-73
2023/10/26 04:55:51;;;;;;;6.30;1.05;;;12.60;99.90;;;;;;5117545;28;20084;-73
2023/10/26 04:58:18;;;;;;;2.90;0.65;;;12.60;99.90;;;;;;5117267;28;20027;-73
2023/10/26 05:00:43;;;;;;;5.68;1.15;;;12.60;99.90;;;;;;5116861;28;20059;-74
2023/10/26 05:03:09;;;;;;;8.65;1.45;;;12.60;99.90;;;;;;5117317;28;20020;-74
2023/10/26 05:05:35;;;;;;;5.45;1.15;;;12.70;99.90;;;;;;5117591;28;20028;-74
2023/10/26 05:08:01;;;;;;;7.20;1.30;;;12.60;99.90;;;;;;5117043;28;20475;-74
2023/10/26 05:10:27;;;;;;;7.57;1.27;;;12.60;99.90;;;;;;5117546;28;20030;-75
2023/10/26 05:12:53;;;;;;;11.77;1.60;;;12.60;99.90;;;;;;5116706;28;20722;-75
2023/10/26 05:15:19;;;;;;;7.22;1.23;;;12.60;99.90;;;;;;5115147;28;20027;-75
2023/10/26 05:17:45;;;;;;;7.93;1.27;;;12.60;99.90;;;;;;5117047;28;20059;-74
2023/10/26 05:20:10;;;;;;;7.68;1.40;;;12.60;99.90;;;;;;5115834;28;20074;-74
2023/10/26 05:22:36;;;;;;;6.72;1.13;;;12.60;99.90;;;;;;5116846;28;20023;-75
2023/10/26 05:25:04;;;;;;;5.43;1.08;;;12.60;99.90;;;;;;5116553;28;20072;-74
2023/10/26 05:27:33;;;;;;;8.20;1.20;;;12.50;99.90;;;;;;5116592;28;20391;-73
2023/10/26 05:29:59;;;;;;;8.73;1.50;;;12.60;99.90;;;;;;5099058;28;20437;-74
2023/10/26 05:32:26;;;;;;;9.52;1.35;;;12.50;99.90;;;;;;5100018;28;20396;-74
2023/10/26 05:34:52;;;;;;;11.25;1.90;;;12.50;99.90;;;;;;5116229;28;20201;-72
2023/10/26 05:37:18;;;;;;;6.13;1.20;;;12.50;99.90;;;;;;5116562;28;20538;-72
2023/10/26 05:39:44;;;;;;;6.13;1.30;;;12.60;99.90;;;;;;5116909;28;20022;-72
2023/10/26 05:42:10;;;;;;;10.68;1.40;;;12.60;99.90;;;;;;5097088;28;20015;-75
2023/10/26 05:44:35;;;;;;;8.52;1.23;;;12.60;99.90;;;;;;5116922;28;20049;-75
2023/10/26 05:47:01;;;;;;;8.65;1.63;;;12.60;99.90;;;;;;5116443;28;20027;-75
2023/10/26 05:49:26;;;;;;;8.57;1.55;;;12.60;99.90;;;;;;5118173;28;20027;-75
2023/10/26 05:51:52;;;;;;;5.82;1.27;;;12.70;99.90;;;;;;5120656;27;20047;-75
2023/10/26 05:54:18;;;;;;;6.95;1.40;;;12.70;99.90;;;;;;5120391;28;20099;-75
2023/10/26 05:56:44;;;;;;;7.32;1.23;;;12.70;99.90;;;;;;5118895;28;20027;-73
2023/10/26 05:59:09;;;;;;;6.38;1.60;;;12.70;99.90;;;;;;5120377;28;20026;-72
2023/10/26 06:01:35;;;;;;;8.30;1.42;;;12.70;99.90;;;;;;5120074;28;20093;-72
2023/10/26 06:04:00;;;;;;;8.63;1.42;;;12.70;99.90;;;;;;5119163;28;20396;-73
2023/10/26 06:06:26;;;;;;;7.20;1.35;;;12.60;99.90;;;;;;5120183;28;20059;-73
2023/10/26 06:08:53;;;;;;;9.20;1.48;;;12.60;99.90;;;;;;5120490;28;20052;-73
2023/10/26 06:11:18;;;;;;;6.88;1.30;;;12.60;99.90;;;;;;5120057;28;20020;-73
2023/10/26 06:13:44;;;;;;;6.78;1.30;;;12.60;99.90;;;;;;5119833;28;20088;-75
2023/10/26 06:16:13;;;;;;;6.10;1.20;;;12.60;99.90;;;;;;5117821;28;20456;-73
2023/10/26 06:18:39;;;;;;;7.38;1.42;;;12.60;99.90;;;;;;5119306;28;20490;-73
2023/10/26 06:21:05;;;;;;;10.02;1.27;;;12.60;99.90;;;;;;5119552;28;20043;-73
2023/10/26 06:23:31;;;;;;;10.75;1.60;;;12.60;99.90;;;;;;5119483;28;20016;-73
2023/10/26 06:25:58;;;;;;;6.57;1.50;;;12.70;99.90;;;;;;5119105;28;20028;-73
2023/10/26 06:28:28;;;;;;;6.53;1.40;;;12.70;99.90;;;;;;5119426;28;20031;-73
2023/10/26 06:30:54;;;;;;;7.43;1.75;;;12.70;99.90;;;;;;5119072;28;20069;-73
2023/10/26 06:33:20;;;;;;;5.80;1.38;;;12.70;99.90;;;;;;5101169;28;20415;-73
2023/10/26 06:35:46;;;;;;;9.02;1.38;;;12.70;99.90;;;;;;5119568;28;20096;-73
2023/10/26 06:38:12;;;;;;;6.07;1.60;;;12.80;99.90;;;;;;5120121;28;20020;-73
2023/10/26 06:40:37;;;;;;;8.23;1.50;;;12.70;99.90;;;;;;5101298;28;20020;-74
2023/10/26 06:43:04;;;;;;;6.32;1.10;;;12.80;99.90;;;;;;5101484;28;20480;-74
2023/10/26 06:45:30;;;;;;;6.35;1.15;;;12.80;99.90;;;;;;5119746;28;20095;-74
2023/10/26 06:47:55;;;;;;;7.88;1.63;;;12.80;99.90;;;;;;5101055;28;20047;-74
2023/10/26 06:50:23;;;;;;;5.47;1.27;;;12.80;99.90;;;;;;5123585;27;20019;-74
2023/10/26 06:52:49;;;;;;;7.22;1.25;;;12.80;99.90;;;;;;5125370;27;20031;-74
2023/10/26 06:55:15;;;;;;;6.15;1.35;;;12.80;99.90;;;;;;5119286;28;20020;-74
2023/10/26 06:57:43;;;;;;;9.35;1.40;;;12.80;99.90;;;;;;5100992;28;20024;-73
2023/10/26 07:00:10;;;;;;;7.43;1.38;;;12.70;99.90;;;;;;5117326;28;20047;-73
2023/10/26 07:02:36;;;;;;;6.65;1.25;;;12.70;99.90;;;;;;5119196;28;20055;-73
2023/10/26 07:05:05;;;;;;;6.85;1.25;;;12.80;99.90;;;;;;5119023;28;20031;-74
2023/10/26 07:07:36;;;;;;;5.15;1.00;;;12.80;99.90;;;;;;5118577;28;20031;-75
2023/10/26 07:10:02;;;;;;;10.30;1.83;;;12.80;99.90;;;;;;5118880;28;20016;-75
2023/10/26 07:12:28;;;;;;;5.90;1.30;;;12.70;99.90;;;;;;5118352;28;20016;-75
2023/10/26 07:14:54;;;;;;;10.05;1.85;;;12.80;99.90;;;;;;5118647;28;20429;-74
2023/10/26 07:17:21;;;;;;;5.45;1.40;;;12.80;99.90;;;;;;5118422;28;20128;-74
2023/10/26 07:19:46;;;;;;;7.65;1.50;;;12.80;99.90;;;;;;5118667;28;20034;-74
2023/10/26 07:22:12;;;;;;;5.50;1.27;;;12.80;99.90;;;;;;5118279;28;20015;-74
2023/10/26 07:24:38;;;;;;;9.05;1.35;;;12.90;99.90;;;;;;5118094;28;20062;-74
2023/10/26 07:27:04;;;;;;;6.45;1.17;;;12.90;99.90;;;;;;5121129;27;20037;-73
2023/10/26 07:29:30;;;;;;;6.47;1.35;;;12.90;99.90;;;;;;5102577;28;20024;-73
2023/10/26 07:31:55;;;;;;;7.22;1.40;;;12.90;99.90;;;;;;5118210;28;20024;-74
2023/10/26 07:34:21;;;;;;;6.95;1.38;;;12.90;99.90;;;;;;5108555;28;20072;-74
2023/10/26 07:36:47;;;;;;;6.60;1.10;;;13.00;99.90;;;;;;5117423;28;20023;-74
2023/10/26 07:39:13;;;;;;;5.53;1.02;;;13.00;99.90;;;;;;5118802;28;20027;-74
2023/10/26 07:41:38;;;;;;;10.60;1.63;;;13.00;99.90;;;;;;5122050;27;20028;-73
2023/10/26 07:44:04;;;;;;;8.32;1.40;;;13.00;99.90;;;;;;5118392;28;20039;-73
2023/10/26 07:46:30;;;;;;;8.45;1.70;;;13.00;99.90;;;;;;5118268;28;20024;-74
2023/10/26 07:48:55;;;;;;;7.05;1.40;;;13.10;99.90;;;;;;5118608;28;20034;-74
2023/10/26 07:51:21;;;;;;;9.00;1.30;;;13.10;99.90;;;;;;5127889;27;20038;-74
2023/10/26 07:53:46;;;;;;;5.22;1.33;;;13.10;99.90;;;;;;5099851;28;20088;-74
2023/10/26 07:56:12;;;;;;;7.97;1.50;;;13.10;99.90;;;;;;5118211;28;20015;-74
2023/10/26 07:58:38;;;;;;;4.22;1.00;;;13.10;99.90;;;;;;5118556;28;20015;-73
2023/10/26 08:01:10;;;;;;;9.60;1.60;;;13.20;99.90;;;;;;5117680;28;20043;-74
2023/10/26 08:03:36;;;;;;;6.20;1.47;;;13.30;99.90;;;;;;5117677;28;20105;-74
2023/10/26 08:06:02;;;;;;;10.38;1.50;;;13.30;99.90;;;;;;5117990;28;20031;-73
2023/10/26 08:08:29;;;;;;;9.32;1.55;;;13.30;99.90;;;;;;5117066;28;20020;-74
2023/10/26 08:10:55;;;;;;;7.53;1.50;;;13.40;99.90;;;;;;5118021;28;20027;-74
2023/10/26 08:13:21;;;;;;;10.15;1.95;;;13.40;99.90;;;;;;5116686;28;20027;-73
2023/10/26 08:15:48;;;;;;;7.57;1.45;;;13.50;99.90;;;;;;5117538;28;20438;-74
2023/10/26 08:18:13;;;;;;;10.15;1.85;;;13.50;99.90;;;;;;5117924;28;20057;-74
2023/10/26 08:20:40;;;;;;;9.55;1.70;;;13.60;99.90;;;;;;5117643;28;20023;-74
2023/10/26 08:23:06;;;;;;;6.20;1.30;;;13.60;99.90;;;;;;5118090;28;20030;-74
2023/10/26 08:25:36;;;;;;;8.75;1.50;;;13.60;99.90;;;;;;5116316;28;20028;-74
2023/10/26 08:28:02;;;;;;;11.52;1.83;;;13.70;99.90;;;;;;5118063;28;20500;-74
2023/10/26 08:30:28;;;;;;;7.78;1.50;;;13.80;99.90;;;;;;5117465;28;20035;-73
2023/10/26 08:32:56;;;;;;;9.57;1.40;;;13.80;99.90;;;;;;5117936;28;20028;-74
2023/10/26 08:35:22;;;;;;;9.63;1.77;;;13.90;99.90;;;;;;5117533;28;20047;-74
2023/10/26 08:37:48;;;;;;;7.20;1.27;;;13.90;99.90;;;;;;5117630;28;20544;-74
2023/10/26 08:40:14;;;;;;;7.50;1.40;;;14.00;99.90;;;;;;5117368;28;20030;-74
2023/10/26 08:42:40;;;;;;;9.02;1.77;;;14.10;99.90;;;;;;5099172;28;20051;-74
2023/10/26 08:45:16;;;;;;;7.95;1.67;;;14.10;99.90;;;;;;5117413;28;20384;-74
2023/10/26 08:47:43;;;;;;;8.15;1.30;;;14.20;99.90;;;;;;5099245;28;20027;-74
2023/10/26 08:50:12;;;;;;;7.05;1.25;;;14.20;99.90;;;;;;5101225;28;20028;-73
2023/10/26 08:52:37;;;;;;;5.90;1.33;;;14.20;99.90;;;;;;5124871;28;20023;-73
2023/10/26 08:55:05;;;;;;;9.88;1.63;;;14.30;99.90;;;;;;5117365;28;20033;-74
2023/10/26 08:57:30;;;;;;;8.45;1.50;;;14.40;99.90;;;;;;5117737;28;20016;-74
2023/10/26 08:59:56;;;;;;;8.57;1.55;;;14.40;99.90;;;;;;5117078;28;20544;-74
2023/10/26 09:02:21;;;;;;;8.52;1.10;;;14.50;99.90;;;;;;5117429;28;20031;-74
2023/10/26 09:05:15;;;;;;;11.27;1.77;;;14.60;99.90;;;;;;5117290;28;20038;-74
2023/10/26 09:07:40;;;;;;;6.28;1.15;;;14.60;99.90;;;;;;5114948;27;20028;-74
2023/10/26 09:10:07;;;;;;;7.65;1.15;;;14.70;99.90;;;;;;5115994;28;20511;-74
2023/10/26 09:12:32;;;;;;;7.57;1.55;;;14.70;99.90;;;;;;5117261;28;20028;-74
2023/10/26 09:14:59;;;;;;;9.10;1.40;;;14.70;99.90;;;;;;5117313;28;20027;-74
2023/10/26 09:17:26;;;;;;;6.40;1.20;;;14.80;99.90;;;;;;5117212;28;20016;-74
2023/10/26 09:19:52;;;;;;;6.70;1.20;;;14.90;99.90;;;;;;5117578;28;20020;-74
2023/10/26 09:22:17;;;;;;;8.65;1.08;;;14.90;99.90;;;;;;5116761;28;20026;-74
2023/10/26 09:24:43;;;;;;;8.45;1.40;;;14.90;99.90;;;;;;5119428;28;20111;-74
2023/10/26 09:27:20;;;;;;;8.23;1.27;;;14.90;99.90;;;;;;5121053;28;20136;-74
2023/10/26 09:29:47;;;;;;;6.68;1.15;;;14.90;99.90;;;;;;5116465;28;20031;-74
2023/10/26 09:32:13;;;;;;;6.70;1.30;;;15.00;99.90;;;;;;5106729;28;20058;-74
2023/10/26 09:34:40;;;;;;;4.72;1.13;;;14.90;99.90;;;;;;5121153;28;20020;-74
2023/10/26 09:37:07;;;;;;;8.45;1.30;;;14.90;99.90;;;;;;5119502;28;20491;-74
2023/10/26 09:39:34;;;;;;;7.18;1.25;;;14.90;99.90;;;;;;5121104;28;20019;-74
2023/10/26 09:42:01;;;;;;;7.55;1.65;;;15.00;99.90;;;;;;5120585;28;20019;-74
2023/10/26 09:44:30;;;;;;;8.88;1.23;;;15.00;99.90;;;;;;5120528;28;20034;-74
2023/10/26 09:46:57;;;;;;;7.15;1.27;;;15.10;99.90;;;;;;5120695;28;20027;-74
2023/10/26 09:49:23;;;;;;;8.00;1.25;;;15.20;99.90;;;;;;5120833;28;20062;-74
2023/10/26 09:51:50;;;;;;;6.28;1.42;;;15.20;99.90;;;;;;5129597;27;20152;-74
2023/10/26 09:54:21;;;;;;;7.15;1.35;;;15.20;99.90;;;;;;5120718;28;20499;-74
2023/10/26 09:56:56;;;;;;;10.85;1.60;;;15.20;99.90;;;;;;5120843;28;20023;-74
2023/10/26 09:59:22;;;;;;;7.78;2.15;;;15.20;99.90;;;;;;5120739;28;20064;-74
2023/10/26 10:01:48;;;;;;;9.05;1.35;;;15.20;99.90;;;;;;5120210;28;20042;-74
2023/10/26 10:04:18;;;;;;;9.63;1.50;;;15.30;99.90;;;;;;5120488;28;20424;-74
2023/10/26 10:06:53;;;;;;;6.10;1.15;;;15.30;99.90;;;;;;5120033;28;20031;-74
2023/10/26 10:09:22;;;;;;;6.43;1.52;;;15.30;99.90;;;;;;5115959;28;20027;-74
2023/10/26 10:12:14;;;;;;;5.72;1.20;;;15.30;99.90;;;;;;5118812;28;20024;-74
2023/10/26 10:14:51;;;;;;;9.82;1.55;;;15.30;99.90;;;;;;5113074;28;20039;-73
2023/10/26 10:17:22;;;;;;;7.43;1.45;;;15.40;99.90;;;;;;5119787;28;20373;-74
2023/10/26 10:20:22;;;;;;;10.27;1.60;;;15.40;99.90;;;;;;5120343;28;20079;-73
2023/10/26 10:22:48;;;;;;;6.68;1.27;;;15.40;99.90;;;;;;5119069;28;20468;-73
2023/10/26 10:25:17;;;;;;;5.57;1.20;;;15.50;99.90;;;;;;5120053;28;20053;-73
2023/10/26 10:27:49;;;;;;;5.93;1.35;;;15.60;99.90;;;;;;5119063;28;20027;-73
2023/10/26 10:30:19;;;;;;;6.72;1.30;;;15.50;99.90;;;;;;5119851;28;20032;-74
2023/10/26 10:32:47;;;;;;;4.68;1.05;;;15.50;99.90;;;;;;5120236;28;20028;-73
2023/10/26 10:35:46;;;;;;;7.53;1.40;;;15.50;99.90;;;;;;5119872;28;20380;-74
2023/10/26 10:38:15;;;;;;;7.07;1.40;;;15.40;99.90;;;;;;5114518;28;20035;-74
2023/10/26 10:41:07;;;;;;;6.75;1.20;;;15.40;99.90;;;;;;5119752;28;20020;-74
2023/10/26 10:43:34;;;;;;;5.45;1.15;;;15.40;99.90;;;;;;5119853;28;20031;-73
2023/10/26 10:46:13;;;;;;;7.65;1.45;;;15.40;99.90;;;;;;5101301;28;20028;-73
2023/10/26 10:49:03;;;;;;;7.78;1.35;;;15.40;99.90;;;;;;5119940;28;20388;-74
2023/10/26 10:51:37;;;;;;;6.68;1.10;;;15.40;99.90;;;;;;5128783;27;20023;-74
2023/10/26 10:54:12;;;;;;;10.45;1.45;;;15.30;99.90;;;;;;5119578;28;20482;-74
2023/10/26 10:56:43;;;;;;;7.32;1.30;;;15.40;99.90;;;;;;5119570;28;20054;-74
2023/10/26 10:59:16;;;;;;;6.13;1.20;;;15.40;99.90;;;;;;5119534;28;20018;-74
2023/10/26 11:01:42;;;;;;;7.15;1.48;;;15.40;99.90;;;;;;5119027;28;20048;-74
2023/10/26 11:04:10;;;;;;;5.28;1.08;;;15.40;99.90;;;;;;5119303;28;20027;-74
2023/10/26 11:06:49;;;;;;;7.32;1.65;;;15.50;99.90;;;;;;5119430;28;20065;-74
2023/10/26 11:09:31;;;;;;;7.15;1.40;;;15.60;99.90;;;;;;5119139;28;20072;-74
2023/10/26 11:12:08;;;;;;;6.07;1.40;;;15.70;99.90;;;;;;5118955;28;20033;-74
2023/10/26 11:14:33;;;;;;;7.80;1.33;;;15.70;99.90;;;;;;5119388;28;20103;-74
2023/10/26 11:17:00;;;;;;;8.07;1.50;;;15.80;99.90;;;;;;5118937;28;20051;-74
2023/10/26 11:19:25;;;;;;;8.77;1.67;;;15.80;99.90;;;;;;5119216;28;20043;-74
2023/10/26 11:21:56;;;;;;;6.28;1.40;;;15.80;99.90;;;;;;5118831;28;20028;-74
2023/10/26 11:24:32;;;;;;;5.22;1.38;;;15.80;99.90;;;;;;5117761;28;20064;-74
2023/10/26 11:27:12;;;;;;;5.00;1.08;;;15.80;99.90;;;;;;5118750;28;20031;-74
2023/10/26 11:29:40;;;;;;;6.97;1.40;;;15.90;99.90;;;;;;5091298;28;20031;-75
2023/10/26 11:32:26;;;;;;;8.43;1.58;;;15.90;99.90;;;;;;5118588;28;20030;-75
2023/10/26 11:35:02;;;;;;;8.30;1.77;;;16.00;99.90;;;;;;5118721;28;20368;-75
2023/10/26 11:37:29;;;;;;;10.18;1.48;;;16.10;99.90;;;;;;5118950;28;20072;-75
2023/10/26 11:39:55;;;;;;;7.82;1.60;;;16.20;99.90;;;;;;5100108;28;20030;-74
2023/10/26 11:42:47;;;;;;;7.47;1.35;;;16.20;99.90;;;;;;5118529;28;20020;-74
2023/10/26 11:45:15;;;;;;;8.27;1.30;;;16.20;99.90;;;;;;5099927;28;20476;-75
2023/10/26 11:47:58;;;;;;;8.18;1.50;;;16.30;99.90;;;;;;5117916;28;20140;-74
2023/10/26 11:50:26;;;;;;;6.00;1.25;;;16.30;99.90;;;;;;5110786;27;20015;-74
2023/10/26 11:52:53;;;;;;;7.57;1.33;;;16.10;99.90;;;;;;5112775;27;20110;-74
2023/10/26 11:55:20;;;;;;;7.90;1.23;;;16.10;99.90;;;;;;5120171;27;20108;-73
2023/10/26 11:57:47;;;;;;;6.53;1.50;;;16.00;99.90;;;;;;5122994;27;20032;-73
2023/10/26 12:00:14;;;;;;;8.23;1.30;;;15.90;99.90;;;;;;5117911;28;20102;-74
2023/10/26 12:02:40;;;;;;;6.05;1.52;;;15.90;99.90;;;;;;5116741;28;20076;-73
2023/10/26 12:05:07;;;;;;;7.38;1.40;;;15.80;99.90;;;;;;5118195;28;20062;-74
2023/10/26 12:07:33;;;;;;;7.38;1.52;;;15.80;99.90;;;;;;5118105;28;20484;-74
2023/10/26 12:10:02;;;;;;;5.80;1.00;;;15.80;99.90;;;;;;5117996;28;20384;-74
2023/10/26 12:12:27;;;;;;;6.40;1.52;;;15.80;99.90;;;;;;5116736;28;20031;-74
2023/10/26 12:14:53;;;;;;;6.60;0.98;;;15.80;99.90;;;;;;5117980;28;20381;-74
2023/10/26 12:17:18;;;;;;;6.47;1.33;;;15.70;99.90;;;;;;5117879;28;20027;-74
2023/10/26 12:19:44;;;;;;;7.78;1.33;;;15.70;99.90;;;;;;5118087;28;20031;-74
2023/10/26 12:22:10;;;;;;;5.20;1.10;;;15.70;99.90;;;;;;5117727;28;20080;-74
2023/10/26 12:24:36;;;;;;;6.07;1.10;;;15.70;99.90;;;;;;5118092;28;20024;-74
2023/10/26 12:27:02;;;;;;;4.63;1.00;;;15.60;99.90;;;;;;5117864;28;20024;-74
2023/10/26 12:29:29;;;;;;;4.78;1.00;;;15.60;99.90;;;;;;5118029;28;20120;-74
2023/10/26 12:31:54;;;;;;;5.53;1.00;;;15.50;99.90;;;;;;5116258;28;20050;-74
2023/10/26 12:34:20;;;;;;;5.80;1.17;;;15.60;99.90;;;;;;5117801;28;20479;-73
2023/10/26 12:36:46;;;;;;;4.75;0.90;;;15.50;99.90;;;;;;5099497;28;20130;-74
2023/10/26 12:39:12;;;;;;;5.20;0.90;;;15.50;99.90;;;;;;5099496;28;20054;-74
2023/10/26 12:41:37;;;;;;;3.65;0.90;;;15.50;99.90;;;;;;5117259;28;20099;-73
2023/10/26 12:44:03;;;;;;;5.03;1.17;;;15.40;99.90;;;;;;5117890;28;20047;-74
2023/10/26 12:46:29;;;;;;;4.78;1.00;;;15.40;99.90;;;;;;5117443;28;20487;-74